createdAt,value
2018-09-25T00:00:17.454Z,8.74
2018-09-25T00:01:17.432Z,8.62
2018-09-25T00:02:17.406Z,8.65
2018-09-25T00:03:17.385Z,8.56
2018-09-25T00:04:17.368Z,8.68
2018-09-25T00:05:17.343Z,8.68
2018-09-25T00:06:17.321Z,8.63
2018-09-25T00:07:17.297Z,8.53
2018-09-25T00:08:17.280Z,8.55
2018-09-25T00:09:17.255Z,8.58
2018-09-25T00:10:17.292Z,8.53
2018-09-25T00:11:17.229Z,8.53
2018-09-25T00:12:17.192Z,8.70
2018-09-25T00:13:17.172Z,8.59
2018-09-25T00:14:17.154Z,8.55
2018-09-25T00:15:17.128Z,8.55
2018-09-25T00:16:17.428Z,8.50
2018-09-25T00:17:17.086Z,8.53
2018-09-25T00:18:17.060Z,8.56
2018-09-25T00:19:17.038Z,8.61
2018-09-25T00:20:17.025Z,8.56
2018-09-25T00:21:16.998Z,8.50
2018-09-25T00:22:16.977Z,8.50
2018-09-25T00:23:16.954Z,8.53
2018-09-25T00:24:16.932Z,8.52
2018-09-25T00:25:16.913Z,8.48
2018-09-25T00:26:16.891Z,8.48
2018-09-25T00:27:16.874Z,8.48
2018-09-25T00:28:16.848Z,8.45
2018-09-25T00:29:16.826Z,8.53
2018-09-25T00:30:17.126Z,8.47
2018-09-25T00:31:16.781Z,8.47
2018-09-25T00:32:16.760Z,8.53
2018-09-25T00:33:16.734Z,8.53
2018-09-25T00:34:16.716Z,8.41
2018-09-25T00:35:16.694Z,8.45
2018-09-25T00:36:16.674Z,8.40
2018-09-25T00:37:16.650Z,8.36
2018-09-25T00:38:16.626Z,8.37
2018-09-25T00:39:16.608Z,8.43
2018-09-25T00:40:16.586Z,8.41
2018-09-25T00:41:16.629Z,8.43
2018-09-25T00:42:16.545Z,8.40
2018-09-25T00:43:16.518Z,8.43
2018-09-25T00:44:16.496Z,8.44
2018-09-25T00:45:16.480Z,8.40
2018-09-25T00:46:16.459Z,8.37
2018-09-25T00:47:16.438Z,8.40
2018-09-25T00:48:16.416Z,8.43
2018-09-25T00:49:16.391Z,8.37
2018-09-25T00:50:16.370Z,8.38
2018-09-25T00:51:16.344Z,8.40
2018-09-25T00:52:16.336Z,8.36
2018-09-25T00:53:16.306Z,8.30
2018-09-25T00:54:16.280Z,8.26
2018-09-25T00:55:16.262Z,8.25
2018-09-25T00:56:16.240Z,8.37
2018-09-25T00:57:16.215Z,8.40
2018-09-25T00:58:16.196Z,8.38
2018-09-25T00:59:16.174Z,8.38
2018-09-25T01:00:16.150Z,8.37
2018-09-25T01:01:16.127Z,8.44
2018-09-25T01:02:16.109Z,8.41
2018-09-25T01:03:16.088Z,8.29
2018-09-25T01:04:16.066Z,8.23
2018-09-25T01:05:16.045Z,8.20
2018-09-25T01:06:16.021Z,8.23
2018-09-25T01:07:15.995Z,8.25
2018-09-25T01:08:15.985Z,8.26
2018-09-25T01:09:15.953Z,8.23
2018-09-25T01:10:15.937Z,8.25
2018-09-25T01:11:15.915Z,8.29
2018-09-25T01:12:15.893Z,8.25
2018-09-25T01:13:15.869Z,8.23
2018-09-25T01:14:15.844Z,8.12
2018-09-25T01:15:15.827Z,8.12
2018-09-25T01:16:15.809Z,8.15
2018-09-25T01:17:15.783Z,8.26
2018-09-25T01:18:15.757Z,8.22
2018-09-25T01:19:15.802Z,8.18
2018-09-25T01:20:15.716Z,8.15
2018-09-25T01:21:15.691Z,8.29
2018-09-25T01:22:15.673Z,8.15
2018-09-25T01:23:15.651Z,8.26
2018-09-25T01:24:15.629Z,8.23
2018-09-25T01:25:15.610Z,8.23
2018-09-25T01:26:15.586Z,8.10
2018-09-25T01:27:15.561Z,8.12
2018-09-25T01:28:15.541Z,8.11
2018-09-25T01:29:15.515Z,8.16
2018-09-25T01:30:15.499Z,8.16
2018-09-25T01:31:15.483Z,8.19
2018-09-25T01:32:15.458Z,8.22
2018-09-25T01:33:15.435Z,8.16
2018-09-25T01:34:15.409Z,8.16
2018-09-25T01:35:15.389Z,8.11
2018-09-25T01:36:15.365Z,8.15
2018-09-25T01:37:15.342Z,8.16
2018-09-25T01:38:15.323Z,8.15
2018-09-25T01:39:15.297Z,8.12
2018-09-25T01:40:15.281Z,8.19
2018-09-25T01:41:15.257Z,8.16
2018-09-25T01:42:15.237Z,8.08
2018-09-25T01:43:15.223Z,8.10
2018-09-25T01:44:15.193Z,8.08
2018-09-25T01:45:15.169Z,7.98
2018-09-25T01:46:15.147Z,8.04
2018-09-25T01:47:15.124Z,8.04
2018-09-25T01:48:15.107Z,7.93
2018-09-25T01:49:15.086Z,8.01
2018-09-25T01:50:15.061Z,8.02
2018-09-25T01:51:15.039Z,8.00
2018-09-25T01:52:15.017Z,7.98
2018-09-25T01:53:14.994Z,7.97
2018-09-25T01:54:14.977Z,7.95
2018-09-25T01:55:14.955Z,8.00
2018-09-25T01:56:14.933Z,8.00
2018-09-25T01:57:14.913Z,7.95
2018-09-25T01:58:14.885Z,7.89
2018-09-25T01:59:14.865Z,8.02
2018-09-25T02:00:14.839Z,7.90
2018-09-25T02:01:14.827Z,7.86
2018-09-25T02:02:14.799Z,7.92
2018-09-25T02:03:14.775Z,7.86
2018-09-25T02:04:14.755Z,7.85
2018-09-25T02:05:14.731Z,7.87
2018-09-25T02:06:14.713Z,7.85
2018-09-25T02:07:14.685Z,7.86
2018-09-25T02:08:14.669Z,7.92
2018-09-25T02:09:14.643Z,7.86
2018-09-25T02:10:14.622Z,7.85
2018-09-25T02:11:14.600Z,7.85
2018-09-25T02:12:14.580Z,7.89
2018-09-25T02:13:14.559Z,7.87
2018-09-25T02:14:14.533Z,7.82
2018-09-25T02:15:14.517Z,7.77
2018-09-25T02:16:14.492Z,7.72
2018-09-25T02:17:14.473Z,7.72
2018-09-25T02:18:14.445Z,7.68
2018-09-25T02:19:14.425Z,7.82
2018-09-25T02:20:14.405Z,7.72
2018-09-25T02:21:14.379Z,7.82
2018-09-25T02:22:14.360Z,7.82
2018-09-25T02:23:14.339Z,7.71
2018-09-25T02:24:14.317Z,7.71
2018-09-25T02:25:14.295Z,7.69
2018-09-25T02:26:14.273Z,7.75
2018-09-25T02:27:14.251Z,7.75
2018-09-25T02:28:14.229Z,7.74
2018-09-25T02:29:14.205Z,7.75
2018-09-25T02:30:14.182Z,7.80
2018-09-25T02:31:14.159Z,7.71
2018-09-25T02:32:14.140Z,7.61
2018-09-25T02:33:14.114Z,7.52
2018-09-25T02:34:14.102Z,7.64
2018-09-25T02:35:14.079Z,7.71
2018-09-25T02:36:14.052Z,7.68
2018-09-25T02:37:14.036Z,7.71
2018-09-25T02:38:14.005Z,7.52
2018-09-25T02:39:13.988Z,7.71
2018-09-25T02:40:13.966Z,7.74
2018-09-25T02:41:13.940Z,7.75
2018-09-25T02:42:13.922Z,7.68
2018-09-25T02:43:13.895Z,7.69
2018-09-25T02:44:13.877Z,7.80
2018-09-25T02:45:13.854Z,7.72
2018-09-25T02:46:13.833Z,7.71
2018-09-25T02:47:13.814Z,7.68
2018-09-25T02:48:13.791Z,7.72
2018-09-25T02:49:13.761Z,7.71
2018-09-25T02:50:13.749Z,7.69
2018-09-25T02:51:13.726Z,7.71
2018-09-25T02:52:13.703Z,7.68
2018-09-25T02:53:13.679Z,7.64
2018-09-25T02:54:13.664Z,7.72
2018-09-25T02:55:13.634Z,7.72
2018-09-25T02:56:13.615Z,7.69
2018-09-25T02:57:13.589Z,7.80
2018-09-25T02:58:13.567Z,7.80
2018-09-25T02:59:13.547Z,7.77
2018-09-25T03:00:13.526Z,7.75
2018-09-25T03:01:13.497Z,7.74
2018-09-25T03:02:13.482Z,7.83
2018-09-25T03:03:13.462Z,7.82
2018-09-25T03:04:13.440Z,7.82
2018-09-25T03:05:13.411Z,7.74
2018-09-25T03:06:13.394Z,7.77
2018-09-25T03:07:13.369Z,7.89
2018-09-25T03:08:13.345Z,7.86
2018-09-25T03:09:13.326Z,7.83
2018-09-25T03:10:13.312Z,7.72
2018-09-25T03:11:13.291Z,7.71
2018-09-25T03:12:13.258Z,7.71
2018-09-25T03:13:13.238Z,7.75
2018-09-25T03:14:13.223Z,7.75
2018-09-25T03:15:13.206Z,7.71
2018-09-25T03:16:13.177Z,7.71
2018-09-25T03:17:13.151Z,7.67
2018-09-25T03:18:13.134Z,7.74
2018-09-25T03:19:13.189Z,7.71
2018-09-25T03:20:13.083Z,7.71
2018-09-25T03:21:13.063Z,7.74
2018-09-25T03:22:13.040Z,7.67
2018-09-25T03:23:13.027Z,7.69
2018-09-25T03:24:12.998Z,7.71
2018-09-25T03:25:12.972Z,7.67
2018-09-25T03:26:12.951Z,7.69
2018-09-25T03:27:12.934Z,7.71
2018-09-25T03:28:12.906Z,7.75
2018-09-25T03:29:12.885Z,7.71
2018-09-25T03:30:12.861Z,7.74
2018-09-25T03:31:12.842Z,7.71
2018-09-25T03:32:12.823Z,7.75
2018-09-25T03:33:12.794Z,7.71
2018-09-25T03:34:12.774Z,7.68
2018-09-25T03:35:12.750Z,7.72
2018-09-25T03:36:12.735Z,7.69
2018-09-25T03:37:12.706Z,7.69
2018-09-25T03:38:12.687Z,7.60
2018-09-25T03:39:12.665Z,7.63
2018-09-25T03:40:12.640Z,7.60
2018-09-25T03:41:12.625Z,7.58
2018-09-25T03:42:12.602Z,7.68
2018-09-25T03:43:12.577Z,7.68
2018-09-25T03:44:12.551Z,7.71
2018-09-25T03:45:12.534Z,7.50
2018-09-25T03:46:12.510Z,7.63
2018-09-25T03:47:12.494Z,7.57
2018-09-25T03:48:12.466Z,7.60
2018-09-25T03:49:12.457Z,7.60
2018-09-25T03:50:12.418Z,7.57
2018-09-25T03:51:12.400Z,7.60
2018-09-25T03:52:12.379Z,7.45
2018-09-25T03:53:12.353Z,7.52
2018-09-25T03:54:12.331Z,7.45
2018-09-25T03:55:12.315Z,7.52
2018-09-25T03:56:12.291Z,7.53
2018-09-25T03:57:12.272Z,7.48
2018-09-25T03:58:12.247Z,7.49
2018-09-25T03:59:12.223Z,7.50
2018-09-25T04:00:12.199Z,7.52
2018-09-25T04:01:12.180Z,7.46
2018-09-25T04:02:12.153Z,7.46
2018-09-25T04:03:12.140Z,7.45
2018-09-25T04:04:12.113Z,7.55
2018-09-25T04:05:12.089Z,7.46
2018-09-25T04:06:12.105Z,7.45
2018-09-25T04:07:12.047Z,7.52
2018-09-25T04:08:12.029Z,7.49
2018-09-25T04:09:12.001Z,7.48
2018-09-25T04:10:11.979Z,7.35
2018-09-25T04:11:11.961Z,7.40
2018-09-25T04:12:11.937Z,7.37
2018-09-25T04:13:11.909Z,7.49
2018-09-25T04:14:11.891Z,7.37
2018-09-25T04:15:11.869Z,7.37
2018-09-25T04:16:11.847Z,7.37
2018-09-25T04:17:11.825Z,7.37
2018-09-25T04:18:11.807Z,7.42
2018-09-25T04:19:11.786Z,7.40
2018-09-25T04:20:11.759Z,7.39
2018-09-25T04:21:11.739Z,7.45
2018-09-25T04:22:11.717Z,7.40
2018-09-25T04:23:11.688Z,7.30
2018-09-25T04:24:11.673Z,7.32
2018-09-25T04:25:11.647Z,7.28
2018-09-25T04:26:11.622Z,7.43
2018-09-25T04:27:11.604Z,7.37
2018-09-25T04:28:11.584Z,7.31
2018-09-25T04:29:11.557Z,7.37
2018-09-25T04:30:11.539Z,7.37
2018-09-25T04:31:11.517Z,7.37
2018-09-25T04:32:11.495Z,7.28
2018-09-25T04:33:11.473Z,7.31
2018-09-25T04:34:11.450Z,7.34
2018-09-25T04:35:11.427Z,7.35
2018-09-25T04:36:11.407Z,7.37
2018-09-25T04:37:11.435Z,7.46
2018-09-25T04:38:11.359Z,7.48
2018-09-25T04:39:11.337Z,7.46
2018-09-25T04:40:11.317Z,7.48
2018-09-25T04:41:11.295Z,7.52
2018-09-25T04:42:11.269Z,7.49
2018-09-25T04:43:11.251Z,7.50
2018-09-25T04:44:11.237Z,7.48
2018-09-25T04:45:11.204Z,7.53
2018-09-25T04:46:11.183Z,7.46
2018-09-25T04:47:11.159Z,7.49
2018-09-25T04:48:11.142Z,7.46
2018-09-25T04:49:11.116Z,7.52
2018-09-25T04:50:11.097Z,7.50
2018-09-25T04:51:11.077Z,7.50
2018-09-25T04:52:11.052Z,7.55
2018-09-25T04:53:11.026Z,7.55
2018-09-25T04:54:11.005Z,7.53
2018-09-25T04:55:10.983Z,7.49
2018-09-25T04:56:10.975Z,7.52
2018-09-25T04:57:11.094Z,7.50
2018-09-25T04:58:10.912Z,7.50
2018-09-25T04:59:10.891Z,7.49
2018-09-25T05:00:10.876Z,7.48
2018-09-25T05:01:10.855Z,7.53
2018-09-25T05:02:10.825Z,7.50
2018-09-25T05:03:10.807Z,7.55
2018-09-25T05:04:10.783Z,7.52
2018-09-25T05:05:10.762Z,7.46
2018-09-25T05:06:10.740Z,7.52
2018-09-25T05:07:10.723Z,7.45
2018-09-25T05:08:10.698Z,7.48
2018-09-25T05:09:10.673Z,7.49
2018-09-25T05:10:10.650Z,7.57
2018-09-25T05:11:10.633Z,7.45
2018-09-25T05:12:10.663Z,7.49
2018-09-25T05:13:10.588Z,7.49
2018-09-25T05:14:10.561Z,7.50
2018-09-25T05:15:10.542Z,7.53
2018-09-25T05:16:10.519Z,7.49
2018-09-25T05:17:10.491Z,7.37
2018-09-25T05:18:10.479Z,7.42
2018-09-25T05:19:10.448Z,7.49
2018-09-25T05:20:10.433Z,7.49
2018-09-25T05:21:10.408Z,7.49
2018-09-25T05:22:10.383Z,7.52
2018-09-25T05:23:10.363Z,7.42
2018-09-25T05:24:10.339Z,7.49
2018-09-25T05:25:10.316Z,7.50
2018-09-25T05:26:10.291Z,7.52
2018-09-25T05:27:10.272Z,7.52
2018-09-25T05:28:10.246Z,7.48
2018-09-25T05:29:10.232Z,7.42
2018-09-25T05:30:10.207Z,7.57
2018-09-25T05:31:10.180Z,7.52
2018-09-25T05:32:10.160Z,7.50
2018-09-25T05:33:10.140Z,7.55
2018-09-25T05:34:10.115Z,7.55
2018-09-25T05:35:10.096Z,7.53
2018-09-25T05:36:10.072Z,7.53
2018-09-25T05:37:10.050Z,7.53
2018-09-25T05:38:10.028Z,7.57
2018-09-25T05:39:10.004Z,7.63
2018-09-25T05:40:09.984Z,7.46
2018-09-25T05:41:09.959Z,7.57
2018-09-25T05:42:09.944Z,7.55
2018-09-25T05:43:09.916Z,7.60
2018-09-25T05:44:09.894Z,7.60
2018-09-25T05:45:09.875Z,7.69
2018-09-25T05:46:09.850Z,7.71
2018-09-25T05:47:09.829Z,7.67
2018-09-25T05:48:09.818Z,7.61
2018-09-25T05:49:09.781Z,7.61
2018-09-25T05:50:09.765Z,7.75
2018-09-25T05:51:09.739Z,7.69
2018-09-25T05:52:09.718Z,7.75
2018-09-25T05:53:09.696Z,7.64
2018-09-25T05:54:09.672Z,7.75
2018-09-25T05:55:09.651Z,7.72
2018-09-25T05:56:09.626Z,7.74
2018-09-25T05:57:09.606Z,7.72
2018-09-25T05:58:09.589Z,7.75
2018-09-25T05:59:09.563Z,7.80
2018-09-25T06:00:09.543Z,7.83
2018-09-25T06:01:09.623Z,7.90
2018-09-25T06:02:09.496Z,7.83
2018-09-25T06:03:09.478Z,7.89
2018-09-25T06:04:09.453Z,7.86
2018-09-25T06:05:09.423Z,7.90
2018-09-25T06:06:09.406Z,7.90
2018-09-25T06:07:09.383Z,8.08
2018-09-25T06:08:09.365Z,8.00
2018-09-25T06:09:09.393Z,8.08
2018-09-25T06:10:09.318Z,8.05
2018-09-25T06:11:09.298Z,8.18
2018-09-25T06:12:09.281Z,8.08
2018-09-25T06:13:09.252Z,8.11
2018-09-25T06:14:09.228Z,8.22
2018-09-25T06:15:09.207Z,8.25
2018-09-25T06:16:09.190Z,8.16
2018-09-25T06:17:09.166Z,8.29
2018-09-25T06:18:09.141Z,8.28
2018-09-25T06:19:09.127Z,8.23
2018-09-25T06:20:09.105Z,8.40
2018-09-25T06:21:09.074Z,8.41
2018-09-25T06:22:09.053Z,8.38
2018-09-25T06:23:09.157Z,8.48
2018-09-25T06:24:09.013Z,8.48
2018-09-25T06:25:08.987Z,8.50
2018-09-25T06:26:08.963Z,8.52
2018-09-25T06:27:08.943Z,8.45
2018-09-25T06:28:08.921Z,8.47
2018-09-25T06:29:08.900Z,8.56
2018-09-25T06:30:08.878Z,8.53
2018-09-25T06:31:08.858Z,8.62
2018-09-25T06:32:08.832Z,8.76
2018-09-25T06:33:08.809Z,8.76
2018-09-25T06:34:08.785Z,8.73
2018-09-25T06:35:08.767Z,8.81
2018-09-25T06:36:08.749Z,8.87
2018-09-25T06:37:08.748Z,8.89
2018-09-25T06:38:08.706Z,8.86
2018-09-25T06:39:08.683Z,8.92
2018-09-25T06:40:08.657Z,8.92
2018-09-25T06:41:08.633Z,9.01
2018-09-25T06:42:08.615Z,9.04
2018-09-25T06:43:08.590Z,9.08
2018-09-25T06:44:08.577Z,9.15
2018-09-25T06:45:08.556Z,9.17
2018-09-25T06:46:08.530Z,9.26
2018-09-25T06:47:08.569Z,9.21
2018-09-25T06:48:08.488Z,9.29
2018-09-25T06:49:08.462Z,9.31
2018-09-25T06:50:08.439Z,9.32
2018-09-25T06:51:08.417Z,9.36
2018-09-25T06:52:08.399Z,9.35
2018-09-25T06:53:08.379Z,9.42
2018-09-25T06:54:08.357Z,9.53
2018-09-25T06:55:08.388Z,9.58
2018-09-25T06:56:08.314Z,9.58
2018-09-25T06:57:08.289Z,9.69
2018-09-25T06:58:08.272Z,9.66
2018-09-25T06:59:08.246Z,9.81
2018-09-25T07:00:08.239Z,9.87
2018-09-25T07:01:08.201Z,9.90
2018-09-25T07:02:08.181Z,9.91
2018-09-25T07:03:08.161Z,9.99
2018-09-25T07:04:08.142Z,10.09
2018-09-25T07:05:08.126Z,10.17
2018-09-25T07:06:08.098Z,10.23
2018-09-25T07:07:08.081Z,10.27
2018-09-25T07:08:08.054Z,10.42
2018-09-25T07:09:08.040Z,10.60
2018-09-25T07:10:08.195Z,10.64
2018-09-25T07:11:07.993Z,10.73
2018-09-25T07:12:07.982Z,10.92
2018-09-25T07:13:07.948Z,10.89
2018-09-25T07:14:07.937Z,11.11
2018-09-25T07:15:07.915Z,11.28
2018-09-25T07:16:07.898Z,11.46
2018-09-25T07:17:07.875Z,11.65
2018-09-25T07:18:07.949Z,11.80
2018-09-25T07:19:07.830Z,12.05
2018-09-25T07:20:07.806Z,12.34
2018-09-25T07:21:07.784Z,12.74
2018-09-25T07:22:07.768Z,12.83
2018-09-25T07:23:07.750Z,13.12
2018-09-25T07:24:07.723Z,13.29
2018-09-25T07:25:07.790Z,13.57
2018-09-25T07:26:07.684Z,13.78
2018-09-25T07:27:07.665Z,13.97
2018-09-25T07:28:07.644Z,14.17
2018-09-25T07:29:07.626Z,14.21
2018-09-25T07:30:07.606Z,14.43
2018-09-25T07:31:07.723Z,14.61
2018-09-25T07:32:07.573Z,14.80
2018-09-25T07:33:07.542Z,14.94
2018-09-25T07:34:07.530Z,15.06
2018-09-25T07:35:07.512Z,15.25
2018-09-25T07:36:07.490Z,15.47
2018-09-25T07:37:07.469Z,15.71
2018-09-25T07:38:07.446Z,15.89
2018-09-25T07:39:07.430Z,16.17
2018-09-25T07:40:07.410Z,16.38
2018-09-25T07:41:07.395Z,16.42
2018-09-25T07:42:07.372Z,16.52
2018-09-25T07:43:07.358Z,16.52
2018-09-25T07:44:07.340Z,16.60
2018-09-25T07:45:07.316Z,16.48
2018-09-25T07:46:07.295Z,16.63
2018-09-25T07:47:07.283Z,16.83
2018-09-25T07:48:07.271Z,16.98
2018-09-25T07:49:07.242Z,16.89
2018-09-25T07:50:07.230Z,17.14
2018-09-25T07:51:07.206Z,17.22
2018-09-25T07:52:07.190Z,17.38
2018-09-25T07:53:07.169Z,17.59
2018-09-25T07:54:07.161Z,17.77
2018-09-25T07:55:07.166Z,17.82
2018-09-25T07:56:07.122Z,18.00
2018-09-25T07:57:07.107Z,18.08
2018-09-25T07:58:07.092Z,18.17
2018-09-25T07:59:07.074Z,18.30
2018-09-25T08:00:07.056Z,18.33
2018-09-25T08:01:07.040Z,18.50
2018-09-25T08:02:07.026Z,18.73
2018-09-25T08:03:07.044Z,18.78
2018-09-25T08:04:06.992Z,18.82
2018-09-25T08:05:06.976Z,18.84
2018-09-25T08:06:06.966Z,18.95
2018-09-25T08:07:06.946Z,19.04
2018-09-25T08:08:06.931Z,19.00
2018-09-25T08:09:06.972Z,18.94
2018-09-25T08:10:06.906Z,19.18
2018-09-25T08:11:06.892Z,19.04
2018-09-25T08:12:06.878Z,18.99
2018-09-25T08:13:06.860Z,19.02
2018-09-25T08:14:06.848Z,19.08
2018-09-25T08:15:06.834Z,19.25
2018-09-25T08:16:06.820Z,19.37
2018-09-25T08:17:06.804Z,19.39
2018-09-25T08:18:06.791Z,19.37
2018-09-25T08:19:06.782Z,19.48
2018-09-25T08:20:06.765Z,19.59
2018-09-25T08:21:06.753Z,19.76
2018-09-25T08:22:06.741Z,19.88
2018-09-25T08:23:06.725Z,20.13
2018-09-25T08:24:06.716Z,20.16
2018-09-25T08:25:06.747Z,20.23
2018-09-25T08:26:06.682Z,20.31
2018-09-25T08:27:06.673Z,20.29
2018-09-25T08:28:06.660Z,20.31
2018-09-25T08:29:06.644Z,20.05
2018-09-25T08:30:06.634Z,19.84
2018-09-25T08:31:06.632Z,19.74
2018-09-25T08:32:06.609Z,19.62
2018-09-25T08:33:06.594Z,19.56
2018-09-25T08:34:06.606Z,19.47
2018-09-25T08:35:06.641Z,19.36
2018-09-25T08:36:06.569Z,19.10
2018-09-25T08:37:06.546Z,18.91
2018-09-25T08:38:06.534Z,18.84
2018-09-25T08:39:06.551Z,18.75
2018-09-25T08:40:06.508Z,18.81
2018-09-25T08:41:06.496Z,18.81
2018-09-25T08:42:06.480Z,18.65
2018-09-25T08:43:06.465Z,18.69
2018-09-25T08:44:06.451Z,18.85
2018-09-25T08:45:06.440Z,18.90
2018-09-25T08:46:06.429Z,18.91
2018-09-25T08:47:06.418Z,19.04
2018-09-25T08:48:06.404Z,19.28
2018-09-25T08:49:06.397Z,19.36
2018-09-25T08:50:06.374Z,19.63
2018-09-25T08:51:06.362Z,19.68
2018-09-25T08:52:06.366Z,19.74
2018-09-25T08:53:06.337Z,19.77
2018-09-25T08:54:48.088Z,19.73
2018-09-25T08:55:06.314Z,19.66
2018-09-25T08:56:06.295Z,19.73
2018-09-25T08:57:06.283Z,19.71
2018-09-25T08:58:06.276Z,19.69
2018-09-25T08:59:06.256Z,19.74
2018-09-25T09:00:06.242Z,19.77
2018-09-25T09:01:09.864Z,19.92
2018-09-25T09:05:27.107Z,20.10
2018-09-25T09:06:27.099Z,20.23
2018-09-25T09:07:27.079Z,20.36
2018-09-25T09:08:27.142Z,20.35
2018-09-25T09:09:27.055Z,20.41
2018-09-25T09:10:27.044Z,20.31
2018-09-25T09:11:27.133Z,20.35
2018-09-25T09:12:27.016Z,20.33
2018-09-25T09:13:27.007Z,20.62
2018-09-25T09:14:26.991Z,20.70
2018-09-25T09:15:26.981Z,20.73
2018-09-25T09:16:26.968Z,21.01
2018-09-25T09:17:26.955Z,21.13
2018-09-25T09:18:26.946Z,21.24
2018-09-25T09:19:26.931Z,21.28
2018-09-25T09:20:26.917Z,21.10
2018-09-25T09:21:26.914Z,20.92
2018-09-25T09:22:26.896Z,21.16
2018-09-25T09:23:26.883Z,21.25
2018-09-25T09:24:26.867Z,21.31
2018-09-25T09:25:26.855Z,21.37
2018-09-25T09:26:26.842Z,21.42
2018-09-25T09:27:26.837Z,21.32
2018-09-25T09:28:26.818Z,21.65
2018-09-25T09:29:26.813Z,21.62
2018-09-25T09:30:26.799Z,21.37
2018-09-25T09:31:26.785Z,21.43
2018-09-25T09:32:26.769Z,21.21
2018-09-25T09:33:26.757Z,21.27
2018-09-25T09:34:26.746Z,21.31
2018-09-25T09:35:26.734Z,21.59
2018-09-25T09:36:26.729Z,21.75
2018-09-25T09:37:26.714Z,21.86
2018-09-25T09:38:26.700Z,21.74
2018-09-25T09:40:26.679Z,21.80
2018-09-25T09:41:26.754Z,21.79
2018-09-25T09:42:26.650Z,21.72
2018-09-25T09:43:26.641Z,21.84
2018-09-25T09:44:26.625Z,21.72
2018-09-25T09:45:26.617Z,21.29
2018-09-25T09:46:26.606Z,20.95
2018-09-25T09:47:26.595Z,21.03
2018-09-25T09:48:26.581Z,20.99
2018-09-25T09:49:26.571Z,21.06
2018-09-25T09:50:26.615Z,20.91
2018-09-25T09:51:26.545Z,21.09
2018-09-25T09:52:26.537Z,20.79
2018-09-25T09:53:26.525Z,20.59
2018-09-25T09:54:26.516Z,20.59
2018-09-25T09:55:26.504Z,20.85
2018-09-25T09:56:26.547Z,21.06
2018-09-25T09:57:26.480Z,21.29
2018-09-25T09:58:26.471Z,21.43
2018-09-25T09:59:26.463Z,21.54
2018-09-25T10:00:26.446Z,21.67
2018-09-25T10:01:26.437Z,21.59
2018-09-25T10:02:26.433Z,21.28
2018-09-25T10:03:26.413Z,21.21
2018-09-25T10:04:26.405Z,21.44
2018-09-25T10:05:26.395Z,21.65
2018-09-25T10:06:26.381Z,21.82
2018-09-25T10:07:26.375Z,21.92
2018-09-25T10:08:26.359Z,22.18
2018-09-25T10:09:26.351Z,22.49
2018-09-25T10:10:26.343Z,22.73
2018-09-25T10:11:26.330Z,23.07
2018-09-25T10:12:26.353Z,22.88
2018-09-25T10:13:26.310Z,22.39
2018-09-25T10:14:26.300Z,22.07
2018-09-25T10:15:26.297Z,21.65
2018-09-25T10:16:26.287Z,21.34
2018-09-25T10:17:26.274Z,20.94
2018-09-25T10:18:26.262Z,21.09
2018-09-25T10:19:26.249Z,21.46
2018-09-25T10:20:26.243Z,21.79
2018-09-25T10:21:26.230Z,22.24
2018-09-25T10:22:26.222Z,22.60
2018-09-25T10:23:26.212Z,22.80
2018-09-25T10:24:26.203Z,23.23
2018-09-25T10:25:26.195Z,23.47
2018-09-25T10:26:26.183Z,23.68
2018-09-25T10:27:26.482Z,23.88
2018-09-25T10:28:26.163Z,24.09
2018-09-25T10:29:26.157Z,24.10
2018-09-25T10:30:26.149Z,24.21
2018-09-25T10:31:26.141Z,24.30
2018-09-25T10:32:26.129Z,24.25
2018-09-25T10:33:26.121Z,24.35
2018-09-25T10:34:26.114Z,24.60
2018-09-25T10:35:26.104Z,24.62
2018-09-25T10:36:26.101Z,24.64
2018-09-25T10:37:26.096Z,24.65
2018-09-25T10:38:26.082Z,24.65
2018-09-25T10:39:26.077Z,24.98
2018-09-25T10:40:26.070Z,25.15
2018-09-25T10:41:26.059Z,24.88
2018-09-25T10:42:26.048Z,24.76
2018-09-25T10:43:26.046Z,24.50
2018-09-25T10:44:26.033Z,24.30
2018-09-25T10:45:26.029Z,24.76
2018-09-25T10:46:26.021Z,24.91
2018-09-25T10:47:26.015Z,24.62
2018-09-25T10:48:26.008Z,24.84
2018-09-25T10:49:25.998Z,24.39
2018-09-25T10:50:25.989Z,24.81
2018-09-25T10:51:25.987Z,25.09
2018-09-25T10:52:25.980Z,25.43
2018-09-25T10:53:25.977Z,25.54
2018-09-25T10:54:25.968Z,25.79
2018-09-25T10:55:25.995Z,25.98
2018-09-25T10:56:25.952Z,26.28
2018-09-25T10:57:25.946Z,26.73
2018-09-25T10:58:25.949Z,26.70
2018-09-25T10:59:25.931Z,27.00
2018-09-25T11:00:25.935Z,27.46
2018-09-25T11:01:25.921Z,27.39
2018-09-25T11:02:25.915Z,27.54
2018-09-25T11:03:25.911Z,27.75
2018-09-25T11:04:25.919Z,27.88
2018-09-25T11:05:25.897Z,27.92
2018-09-25T11:06:25.891Z,28.04
2018-09-25T11:07:25.887Z,28.19
2018-09-25T11:08:25.888Z,28.24
2018-09-25T11:09:25.875Z,28.22
2018-09-25T11:10:25.875Z,28.19
2018-09-25T11:11:25.866Z,28.04
2018-09-25T11:12:25.863Z,28.04
2018-09-25T11:13:25.852Z,28.46
2018-09-25T11:14:25.847Z,28.71
2018-09-25T11:15:25.845Z,29.00
2018-09-25T11:16:25.839Z,28.95
2018-09-25T11:17:25.833Z,28.73
2018-09-25T11:18:25.833Z,28.54
2018-09-25T11:19:25.825Z,28.93
2018-09-25T11:20:25.821Z,28.95
2018-09-25T11:21:25.821Z,29.11
2018-09-25T11:22:25.811Z,29.36
2018-09-25T11:23:25.805Z,29.45
2018-09-25T11:24:25.799Z,29.36
2018-09-25T11:25:25.839Z,29.63
2018-09-25T11:26:25.789Z,29.68
2018-09-25T11:27:25.784Z,29.92
2018-09-25T11:28:25.790Z,30.02
2018-09-25T11:29:25.781Z,29.86
2018-09-25T11:30:25.775Z,30.10
2018-09-25T11:31:25.767Z,30.31
2018-09-25T11:32:25.771Z,30.01
2018-09-25T11:33:25.764Z,29.92
2018-09-25T11:34:25.755Z,29.94
2018-09-25T11:35:25.787Z,30.00
2018-09-25T11:36:25.750Z,30.15
2018-09-25T11:37:25.744Z,30.39
2018-09-25T11:38:25.737Z,30.77
2018-09-25T11:39:25.741Z,30.86
2018-09-25T11:40:25.731Z,30.29
2018-09-25T11:41:25.881Z,29.87
2018-09-25T11:42:25.723Z,29.09
2018-09-25T11:43:25.715Z,28.22
2018-09-25T11:44:25.715Z,27.72
2018-09-25T11:45:25.713Z,27.07
2018-09-25T11:46:25.711Z,26.72
2018-09-25T11:47:25.712Z,27.21
2018-09-25T11:48:25.703Z,26.76
2018-09-25T11:49:25.708Z,26.72
2018-09-25T11:50:25.689Z,26.52
2018-09-25T11:51:25.680Z,26.13
2018-09-25T11:52:25.681Z,26.62
2018-09-25T11:53:25.678Z,26.75
2018-09-25T11:54:25.671Z,26.76
2018-09-25T11:55:25.670Z,26.66
2018-09-25T11:56:25.726Z,26.84
2018-09-25T11:57:25.658Z,27.39
2018-09-25T11:58:25.683Z,27.36
2018-09-25T11:59:25.641Z,27.69
2018-09-25T12:00:25.641Z,28.19
2018-09-25T12:01:25.634Z,28.31
2018-09-25T12:02:25.626Z,28.25
2018-09-25T12:03:25.624Z,27.43
2018-09-25T12:04:25.648Z,26.85
2018-09-25T12:05:25.618Z,26.63
2018-09-25T12:06:25.617Z,25.90
2018-09-25T12:07:25.607Z,25.69
2018-09-25T12:08:25.604Z,26.26
2018-09-25T12:09:25.595Z,26.01
2018-09-25T12:10:25.590Z,26.10
2018-09-25T12:11:25.584Z,26.48
2018-09-25T12:12:25.581Z,26.84
2018-09-25T12:13:25.576Z,26.77
2018-09-25T12:14:25.567Z,26.87
2018-09-25T12:15:25.566Z,26.89
2018-09-25T12:16:25.570Z,26.51
2018-09-25T12:17:25.606Z,26.75
2018-09-25T12:18:25.554Z,27.12
2018-09-25T12:19:25.549Z,27.40
2018-09-25T12:20:25.543Z,27.87
2018-09-25T12:21:25.534Z,28.14
2018-09-25T12:22:25.530Z,28.49
2018-09-25T12:23:25.615Z,28.58
2018-09-25T12:24:25.594Z,28.34
2018-09-25T12:25:25.517Z,28.36
2018-09-25T12:26:25.507Z,28.34
2018-09-25T12:27:25.507Z,28.11
2018-09-25T12:28:25.502Z,27.97
2018-09-25T12:29:25.494Z,27.84
2018-09-25T12:30:25.488Z,27.40
2018-09-25T12:31:25.480Z,27.03
2018-09-25T12:32:25.501Z,26.72
2018-09-25T12:33:25.472Z,26.36
2018-09-25T12:34:25.465Z,26.07
2018-09-25T12:35:25.466Z,25.91
2018-09-25T12:36:25.453Z,25.55
2018-09-25T12:37:25.450Z,25.27
2018-09-25T12:38:25.444Z,24.95
2018-09-25T12:39:25.441Z,24.71
2018-09-25T12:40:25.430Z,24.47
2018-09-25T12:41:25.422Z,24.25
2018-09-25T12:42:25.421Z,24.13
2018-09-25T12:43:25.414Z,23.97
2018-09-25T12:44:25.404Z,23.83
2018-09-25T12:45:25.398Z,23.75
2018-09-25T12:46:25.397Z,23.66
2018-09-25T12:47:25.385Z,23.40
2018-09-25T12:48:25.384Z,23.25
2018-09-25T12:49:25.374Z,23.07
2018-09-25T12:50:25.363Z,22.94
2018-09-25T12:51:25.356Z,22.68
2018-09-25T12:52:25.371Z,22.40
2018-09-25T12:53:25.342Z,22.25
2018-09-25T12:54:25.339Z,22.18
2018-09-25T12:55:25.324Z,22.03
2018-09-25T12:56:25.315Z,21.88
2018-09-25T12:57:25.308Z,21.80
2018-09-25T12:58:25.303Z,21.88
2018-09-25T12:59:25.293Z,21.90
2018-09-25T13:00:25.283Z,21.77
2018-09-25T13:01:25.272Z,21.67
2018-09-25T13:02:26.477Z,21.58
2018-09-25T13:03:25.260Z,21.71
2018-09-25T13:04:25.242Z,21.67
2018-09-25T13:05:25.244Z,21.79
2018-09-25T13:06:25.228Z,21.65
2018-09-25T13:07:25.222Z,21.69
2018-09-25T13:08:25.211Z,21.72
2018-09-25T13:09:25.212Z,21.65
2018-09-25T13:10:25.201Z,21.53